sensor_id;sensor_type;location;lat;lon;timestamp;P1;durP1;ratioP1;P2;durP2;ratioP2
35128;SDS011;21301;43.626;10.580;2023-03-03T00:00:39;13.57;;;7.45;;
35128;SDS011;21301;43.626;10.580;2023-03-03T00:03:05;13.18;;;6.35;;
35128;SDS011;21301;43.626;10.580;2023-03-03T00:05:34;14.85;;;8.00;;
35128;SDS011;21301;43.626;10.580;2023-03-03T00:08:00;18.92;;;11.50;;
35128;SDS011;21301;43.626;10.580;2023-03-03T00:10:26;17.60;;;10.02;;
35128;SDS011;21301;43.626;10.580;2023-03-03T00:12:52;19.13;;;7.80;;
35128;SDS011;21301;43.626;10.580;2023-03-03T00:15:20;14.25;;;6.88;;
35128;SDS011;21301;43.626;10.580;2023-03-03T00:17:47;12.55;;;6.60;;
35128;SDS011;21301;43.626;10.580;2023-03-03T00:22:54;11.82;;;7.45;;
35128;SDS011;21301;43.626;10.580;2023-03-03T00:25:27;13.80;;;7.93;;
35128;SDS011;21301;43.626;10.580;2023-03-03T00:30:46;10.40;;;6.63;;
35128;SDS011;21301;43.626;10.580;2023-03-03T00:33:33;9.93;;;6.03;;
35128;SDS011;21301;43.626;10.580;2023-03-03T00:36:09;19.55;;;7.40;;
35128;SDS011;21301;43.626;10.580;2023-03-03T00:38:38;14.35;;;7.20;;
35128;SDS011;21301;43.626;10.580;2023-03-03T00:41:13;14.90;;;7.93;;
35128;SDS011;21301;43.626;10.580;2023-03-03T00:43:48;16.38;;;8.23;;
35128;SDS011;21301;43.626;10.580;2023-03-03T00:46:15;13.68;;;8.23;;
35128;SDS011;21301;43.626;10.580;2023-03-03T00:48:44;20.40;;;8.98;;
35128;SDS011;21301;43.626;10.580;2023-03-03T00:51:18;14.02;;;7.53;;
35128;SDS011;21301;43.626;10.580;2023-03-03T00:53:55;11.82;;;6.65;;
35128;SDS011;21301;43.626;10.580;2023-03-03T00:56:21;12.30;;;6.57;;
35128;SDS011;21301;43.626;10.580;2023-03-03T00:58:47;11.18;;;6.05;;
35128;SDS011;21301;43.626;10.580;2023-03-03T01:01:17;11.93;;;6.88;;
35128;SDS011;21301;43.626;10.580;2023-03-03T01:03:46;12.52;;;5.80;;
35128;SDS011;21301;43.626;10.580;2023-03-03T01:06:12;13.65;;;7.45;;
35128;SDS011;21301;43.626;10.580;2023-03-03T01:08:39;9.18;;;5.95;;
35128;SDS011;21301;43.626;10.580;2023-03-03T01:11:10;12.43;;;5.30;;
35128;SDS011;21301;43.626;10.580;2023-03-03T01:13:40;12.68;;;7.30;;
35128;SDS011;21301;43.626;10.580;2023-03-03T01:16:08;13.00;;;5.90;;
35128;SDS011;21301;43.626;10.580;2023-03-03T01:18:34;10.90;;;6.50;;
35128;SDS011;21301;43.626;10.580;2023-03-03T01:21:00;8.77;;;5.68;;
35128;SDS011;21301;43.626;10.580;2023-03-03T01:23:28;8.95;;;5.40;;
35128;SDS011;21301;43.626;10.580;2023-03-03T01:25:54;11.77;;;6.85;;
35128;SDS011;21301;43.626;10.580;2023-03-03T01:28:20;11.05;;;6.40;;
35128;SDS011;21301;43.626;10.580;2023-03-03T01:30:46;8.75;;;5.53;;
35128;SDS011;21301;43.626;10.580;2023-03-03T01:33:11;14.05;;;5.93;;
35128;SDS011;21301;43.626;10.580;2023-03-03T01:35:41;12.60;;;5.22;;
35128;SDS011;21301;43.626;10.580;2023-03-03T01:38:08;9.02;;;4.97;;
35128;SDS011;21301;43.626;10.580;2023-03-03T01:40:34;10.93;;;5.97;;
35128;SDS011;21301;43.626;10.580;2023-03-03T01:43:01;10.25;;;5.38;;
35128;SDS011;21301;43.626;10.580;2023-03-03T01:45:28;10.05;;;4.63;;
35128;SDS011;21301;43.626;10.580;2023-03-03T01:48:03;8.52;;;4.65;;
35128;SDS011;21301;43.626;10.580;2023-03-03T01:53:04;11.48;;;4.65;;
35128;SDS011;21301;43.626;10.580;2023-03-03T01:55:35;8.02;;;4.40;;
35128;SDS011;21301;43.626;10.580;2023-03-03T01:58:04;9.13;;;4.30;;
35128;SDS011;21301;43.626;10.580;2023-03-03T02:00:58;7.43;;;4.25;;
35128;SDS011;21301;43.626;10.580;2023-03-03T02:03:27;11.82;;;5.20;;
35128;SDS011;21301;43.626;10.580;2023-03-03T02:05:54;10.77;;;4.93;;
35128;SDS011;21301;43.626;10.580;2023-03-03T02:08:29;8.75;;;5.25;;
35128;SDS011;21301;43.626;10.580;2023-03-03T02:11:00;10.20;;;4.90;;
35128;SDS011;21301;43.626;10.580;2023-03-03T02:13:27;10.20;;;5.18;;
35128;SDS011;21301;43.626;10.580;2023-03-03T02:15:53;8.90;;;4.72;;
35128;SDS011;21301;43.626;10.580;2023-03-03T02:18:21;14.88;;;5.47;;
35128;SDS011;21301;43.626;10.580;2023-03-03T02:23:32;11.18;;;5.13;;
35128;SDS011;21301;43.626;10.580;2023-03-03T02:28:43;9.85;;;5.65;;
35128;SDS011;21301;43.626;10.580;2023-03-03T02:31:12;8.85;;;5.00;;
35128;SDS011;21301;43.626;10.580;2023-03-03T02:33:45;11.90;;;5.53;;
35128;SDS011;21301;43.626;10.580;2023-03-03T02:36:14;9.70;;;5.65;;
35128;SDS011;21301;43.626;10.580;2023-03-03T02:46:34;13.55;;;6.90;;
35128;SDS011;21301;43.626;10.580;2023-03-03T02:49:01;10.75;;;6.55;;
35128;SDS011;21301;43.626;10.580;2023-03-03T02:51:28;8.90;;;5.68;;
35128;SDS011;21301;43.626;10.580;2023-03-03T02:53:54;10.80;;;5.50;;
35128;SDS011;21301;43.626;10.580;2023-03-03T02:56:22;9.75;;;5.13;;
35128;SDS011;21301;43.626;10.580;2023-03-03T02:58:48;9.00;;;5.15;;
35128;SDS011;21301;43.626;10.580;2023-03-03T03:01:15;13.27;;;6.40;;
35128;SDS011;21301;43.626;10.580;2023-03-03T03:03:42;9.45;;;5.57;;
35128;SDS011;21301;43.626;10.580;2023-03-03T03:06:08;9.98;;;5.88;;
35128;SDS011;21301;43.626;10.580;2023-03-03T03:08:34;11.38;;;6.05;;
35128;SDS011;21301;43.626;10.580;2023-03-03T03:11:00;14.48;;;6.90;;
35128;SDS011;21301;43.626;10.580;2023-03-03T03:13:28;8.18;;;5.13;;
35128;SDS011;21301;43.626;10.580;2023-03-03T03:15:55;9.40;;;5.75;;
35128;SDS011;21301;43.626;10.580;2023-03-03T03:18:22;12.98;;;6.35;;
35128;SDS011;21301;43.626;10.580;2023-03-03T03:20:48;9.60;;;5.43;;
35128;SDS011;21301;43.626;10.580;2023-03-03T03:23:14;9.55;;;5.40;;
35128;SDS011;21301;43.626;10.580;2023-03-03T03:25:41;9.57;;;5.82;;
35128;SDS011;21301;43.626;10.580;2023-03-03T03:28:14;9.27;;;5.28;;
35128;SDS011;21301;43.626;10.580;2023-03-03T03:30:41;7.20;;;4.47;;
35128;SDS011;21301;43.626;10.580;2023-03-03T03:33:09;8.63;;;4.78;;
35128;SDS011;21301;43.626;10.580;2023-03-03T03:35:36;10.00;;;5.80;;
35128;SDS011;21301;43.626;10.580;2023-03-03T03:38:02;8.02;;;4.88;;
35128;SDS011;21301;43.626;10.580;2023-03-03T03:40:29;9.77;;;4.80;;
35128;SDS011;21301;43.626;10.580;2023-03-03T03:42:55;10.40;;;5.57;;
35128;SDS011;21301;43.626;10.580;2023-03-03T03:45:21;10.52;;;4.90;;
35128;SDS011;21301;43.626;10.580;2023-03-03T03:47:47;13.63;;;5.07;;
35128;SDS011;21301;43.626;10.580;2023-03-03T03:50:14;10.40;;;5.57;;
35128;SDS011;21301;43.626;10.580;2023-03-03T03:52:41;9.50;;;4.95;;
35128;SDS011;21301;43.626;10.580;2023-03-03T03:55:08;11.68;;;5.30;;
35128;SDS011;21301;43.626;10.580;2023-03-03T03:57:36;12.40;;;4.63;;
35128;SDS011;21301;43.626;10.580;2023-03-03T04:00:03;9.23;;;4.93;;
35128;SDS011;21301;43.626;10.580;2023-03-03T04:02:39;11.10;;;4.47;;
35128;SDS011;21301;43.626;10.580;2023-03-03T04:05:08;8.90;;;5.45;;
35128;SDS011;21301;43.626;10.580;2023-03-03T04:07:36;8.73;;;5.10;;
35128;SDS011;21301;43.626;10.580;2023-03-03T04:10:02;12.27;;;5.50;;
35128;SDS011;21301;43.626;10.580;2023-03-03T04:12:28;12.38;;;6.10;;
35128;SDS011;21301;43.626;10.580;2023-03-03T04:14:55;9.18;;;5.40;;
35128;SDS011;21301;43.626;10.580;2023-03-03T04:17:23;12.43;;;5.97;;
35128;SDS011;21301;43.626;10.580;2023-03-03T04:19:51;10.95;;;6.75;;
35128;SDS011;21301;43.626;10.580;2023-03-03T04:22:18;14.32;;;7.00;;
35128;SDS011;21301;43.626;10.580;2023-03-03T04:24:44;13.27;;;6.47;;
35128;SDS011;21301;43.626;10.580;2023-03-03T04:27:13;14.40;;;6.95;;
35128;SDS011;21301;43.626;10.580;2023-03-03T04:29:40;10.77;;;6.60;;
35128;SDS011;21301;43.626;10.580;2023-03-03T04:32:06;11.02;;;6.22;;
35128;SDS011;21301;43.626;10.580;2023-03-03T04:34:33;9.98;;;6.10;;
35128;SDS011;21301;43.626;10.580;2023-03-03T04:36:59;10.75;;;5.47;;
35128;SDS011;21301;43.626;10.580;2023-03-03T04:39:26;9.77;;;6.25;;
35128;SDS011;21301;43.626;10.580;2023-03-03T04:41:53;10.27;;;6.20;;
35128;SDS011;21301;43.626;10.580;2023-03-03T04:44:20;12.20;;;6.03;;
35128;SDS011;21301;43.626;10.580;2023-03-03T04:46:47;17.38;;;6.65;;
35128;SDS011;21301;43.626;10.580;2023-03-03T04:49:13;11.48;;;5.72;;
35128;SDS011;21301;43.626;10.580;2023-03-03T04:51:40;10.95;;;5.35;;
35128;SDS011;21301;43.626;10.580;2023-03-03T04:54:06;11.68;;;6.00;;
35128;SDS011;21301;43.626;10.580;2023-03-03T04:56:32;8.95;;;5.10;;
35128;SDS011;21301;43.626;10.580;2023-03-03T04:58:59;10.88;;;5.30;;
35128;SDS011;21301;43.626;10.580;2023-03-03T05:01:26;13.35;;;6.45;;
35128;SDS011;21301;43.626;10.580;2023-03-03T05:03:51;14.63;;;6.22;;
35128;SDS011;21301;43.626;10.580;2023-03-03T05:06:17;12.23;;;6.82;;
35128;SDS011;21301;43.626;10.580;2023-03-03T05:08:43;10.07;;;5.15;;
35128;SDS011;21301;43.626;10.580;2023-03-03T05:11:10;9.30;;;5.82;;
35128;SDS011;21301;43.626;10.580;2023-03-03T05:13:36;11.00;;;5.82;;
35128;SDS011;21301;43.626;10.580;2023-03-03T05:16:02;13.50;;;6.70;;
35128;SDS011;21301;43.626;10.580;2023-03-03T05:18:28;11.07;;;6.63;;
35128;SDS011;21301;43.626;10.580;2023-03-03T05:20:54;13.55;;;6.40;;
35128;SDS011;21301;43.626;10.580;2023-03-03T05:23:20;14.45;;;6.07;;
35128;SDS011;21301;43.626;10.580;2023-03-03T05:25:47;15.05;;;7.03;;
35128;SDS011;21301;43.626;10.580;2023-03-03T05:28:13;11.93;;;5.80;;
35128;SDS011;21301;43.626;10.580;2023-03-03T05:30:39;15.85;;;6.95;;
35128;SDS011;21301;43.626;10.580;2023-03-03T05:33:05;15.05;;;7.57;;
35128;SDS011;21301;43.626;10.580;2023-03-03T05:35:32;13.02;;;6.57;;
35128;SDS011;21301;43.626;10.580;2023-03-03T05:37:58;11.98;;;7.47;;
35128;SDS011;21301;43.626;10.580;2023-03-03T05:40:26;15.68;;;7.22;;
35128;SDS011;21301;43.626;10.580;2023-03-03T05:42:52;9.73;;;6.32;;
35128;SDS011;21301;43.626;10.580;2023-03-03T05:45:19;13.35;;;6.00;;
35128;SDS011;21301;43.626;10.580;2023-03-03T05:47:54;15.15;;;7.35;;
35128;SDS011;21301;43.626;10.580;2023-03-03T05:50:20;11.88;;;7.00;;
35128;SDS011;21301;43.626;10.580;2023-03-03T05:52:48;13.10;;;6.85;;
35128;SDS011;21301;43.626;10.580;2023-03-03T05:55:15;10.65;;;5.53;;
35128;SDS011;21301;43.626;10.580;2023-03-03T05:57:41;12.43;;;6.78;;
35128;SDS011;21301;43.626;10.580;2023-03-03T06:00:07;12.13;;;7.05;;
35128;SDS011;21301;43.626;10.580;2023-03-03T06:02:40;10.63;;;6.05;;
35128;SDS011;21301;43.626;10.580;2023-03-03T06:05:06;11.55;;;6.25;;
35128;SDS011;21301;43.626;10.580;2023-03-03T06:07:33;10.30;;;5.75;;
35128;SDS011;21301;43.626;10.580;2023-03-03T06:09:59;13.80;;;6.25;;
35128;SDS011;21301;43.626;10.580;2023-03-03T06:12:25;15.05;;;6.70;;
35128;SDS011;21301;43.626;10.580;2023-03-03T06:14:51;13.98;;;6.63;;
35128;SDS011;21301;43.626;10.580;2023-03-03T06:17:17;12.35;;;7.03;;
35128;SDS011;21301;43.626;10.580;2023-03-03T06:19:43;12.88;;;7.28;;
35128;SDS011;21301;43.626;10.580;2023-03-03T06:22:08;12.23;;;6.60;;
35128;SDS011;21301;43.626;10.580;2023-03-03T06:24:34;11.18;;;6.18;;
35128;SDS011;21301;43.626;10.580;2023-03-03T06:27:00;16.25;;;7.82;;
35128;SDS011;21301;43.626;10.580;2023-03-03T06:29:26;13.57;;;7.18;;
35128;SDS011;21301;43.626;10.580;2023-03-03T06:31:53;12.02;;;6.78;;
35128;SDS011;21301;43.626;10.580;2023-03-03T06:34:18;20.45;;;6.85;;
35128;SDS011;21301;43.626;10.580;2023-03-03T06:36:44;13.50;;;7.07;;
35128;SDS011;21301;43.626;10.580;2023-03-03T06:39:10;14.80;;;6.63;;
35128;SDS011;21301;43.626;10.580;2023-03-03T06:41:36;13.07;;;7.05;;
35128;SDS011;21301;43.626;10.580;2023-03-03T06:44:02;11.38;;;6.45;;
35128;SDS011;21301;43.626;10.580;2023-03-03T06:46:28;12.05;;;6.47;;
35128;SDS011;21301;43.626;10.580;2023-03-03T06:48:54;16.13;;;6.53;;
35128;SDS011;21301;43.626;10.580;2023-03-03T06:51:40;10.50;;;7.18;;
35128;SDS011;21301;43.626;10.580;2023-03-03T06:54:10;15.10;;;7.13;;
35128;SDS011;21301;43.626;10.580;2023-03-03T06:56:38;14.70;;;7.28;;
35128;SDS011;21301;43.626;10.580;2023-03-03T06:59:05;13.85;;;7.13;;
35128;SDS011;21301;43.626;10.580;2023-03-03T07:01:46;16.05;;;7.75;;
35128;SDS011;21301;43.626;10.580;2023-03-03T07:04:21;15.70;;;6.82;;
35128;SDS011;21301;43.626;10.580;2023-03-03T07:06:57;14.13;;;7.15;;
35128;SDS011;21301;43.626;10.580;2023-03-03T07:09:30;18.55;;;7.72;;
35128;SDS011;21301;43.626;10.580;2023-03-03T07:11:59;19.90;;;8.48;;
35128;SDS011;21301;43.626;10.580;2023-03-03T07:14:27;13.82;;;7.50;;
35128;SDS011;21301;43.626;10.580;2023-03-03T07:16:58;12.38;;;6.70;;
35128;SDS011;21301;43.626;10.580;2023-03-03T07:19:29;14.23;;;8.07;;
35128;SDS011;21301;43.626;10.580;2023-03-03T07:21:58;11.65;;;6.80;;
35128;SDS011;21301;43.626;10.580;2023-03-03T07:24:46;15.82;;;7.43;;
35128;SDS011;21301;43.626;10.580;2023-03-03T07:34:51;17.73;;;8.63;;
35128;SDS011;21301;43.626;10.580;2023-03-03T07:37:53;20.55;;;8.88;;
35128;SDS011;21301;43.626;10.580;2023-03-03T07:43:15;17.13;;;8.68;;
35128;SDS011;21301;43.626;10.580;2023-03-03T07:45:46;16.52;;;8.73;;
35128;SDS011;21301;43.626;10.580;2023-03-03T07:48:16;20.10;;;8.98;;
35128;SDS011;21301;43.626;10.580;2023-03-03T07:51:04;13.88;;;7.63;;
35128;SDS011;21301;43.626;10.580;2023-03-03T07:53:36;17.52;;;9.35;;
35128;SDS011;21301;43.626;10.580;2023-03-03T07:56:45;16.27;;;9.43;;
35128;SDS011;21301;43.626;10.580;2023-03-03T07:58:52;20.08;;;9.20;;
35128;SDS011;21301;43.626;10.580;2023-03-03T08:01:36;17.85;;;10.10;;
35128;SDS011;21301;43.626;10.580;2023-03-03T08:07:01;18.00;;;9.57;;
35128;SDS011;21301;43.626;10.580;2023-03-03T08:15:27;16.27;;;8.07;;
35128;SDS011;21301;43.626;10.580;2023-03-03T08:17:55;13.43;;;7.20;;
35128;SDS011;21301;43.626;10.580;2023-03-03T08:23:08;12.50;;;7.45;;
35128;SDS011;21301;43.626;10.580;2023-03-03T08:25:34;13.80;;;7.38;;
35128;SDS011;21301;43.626;10.580;2023-03-03T08:28:00;13.18;;;7.35;;
35128;SDS011;21301;43.626;10.580;2023-03-03T08:30:26;14.07;;;6.68;;
35128;SDS011;21301;43.626;10.580;2023-03-03T08:32:52;15.95;;;7.07;;
35128;SDS011;21301;43.626;10.580;2023-03-03T08:35:18;12.32;;;6.93;;
35128;SDS011;21301;43.626;10.580;2023-03-03T08:37:43;11.52;;;6.15;;
35128;SDS011;21301;43.626;10.580;2023-03-03T08:40:09;15.35;;;6.97;;
35128;SDS011;21301;43.626;10.580;2023-03-03T08:42:38;14.75;;;8.07;;
35128;SDS011;21301;43.626;10.580;2023-03-03T08:45:04;123.53;;;57.85;;
35128;SDS011;21301;43.626;10.580;2023-03-03T08:47:30;13.13;;;7.15;;
35128;SDS011;21301;43.626;10.580;2023-03-03T08:49:56;15.77;;;7.60;;
35128;SDS011;21301;43.626;10.580;2023-03-03T08:52:21;14.98;;;6.55;;
35128;SDS011;21301;43.626;10.580;2023-03-03T08:54:47;16.00;;;8.13;;
35128;SDS011;21301;43.626;10.580;2023-03-03T08:57:13;16.45;;;8.23;;
35128;SDS011;21301;43.626;10.580;2023-03-03T08:59:39;15.07;;;7.47;;
35128;SDS011;21301;43.626;10.580;2023-03-03T09:02:05;18.25;;;8.20;;
35128;SDS011;21301;43.626;10.580;2023-03-03T09:04:31;28.90;;;14.02;;
35128;SDS011;21301;43.626;10.580;2023-03-03T09:06:57;13.85;;;7.50;;
35128;SDS011;21301;43.626;10.580;2023-03-03T09:09:23;13.05;;;7.35;;
35128;SDS011;21301;43.626;10.580;2023-03-03T09:11:49;12.43;;;7.72;;
35128;SDS011;21301;43.626;10.580;2023-03-03T09:14:17;13.85;;;7.55;;
35128;SDS011;21301;43.626;10.580;2023-03-03T09:16:52;11.27;;;6.75;;
35128;SDS011;21301;43.626;10.580;2023-03-03T09:22:17;16.58;;;7.68;;
35128;SDS011;21301;43.626;10.580;2023-03-03T09:24:42;14.95;;;7.00;;
35128;SDS011;21301;43.626;10.580;2023-03-03T09:27:24;13.77;;;5.50;;
35128;SDS011;21301;43.626;10.580;2023-03-03T09:30:10;17.63;;;6.47;;
35128;SDS011;21301;43.626;10.580;2023-03-03T09:32:56;12.93;;;5.72;;
35128;SDS011;21301;43.626;10.580;2023-03-03T09:52:39;9.02;;;3.50;;
35128;SDS011;21301;43.626;10.580;2023-03-03T09:55:33;8.20;;;3.83;;
35128;SDS011;21301;43.626;10.580;2023-03-03T10:00:51;9.93;;;3.42;;
35128;SDS011;21301;43.626;10.580;2023-03-03T10:22:38;5.57;;;3.45;;
35128;SDS011;21301;43.626;10.580;2023-03-03T10:33:07;7.25;;;3.17;;
35128;SDS011;21301;43.626;10.580;2023-03-03T10:46:55;7.03;;;2.88;;
35128;SDS011;21301;43.626;10.580;2023-03-03T10:49:53;10.48;;;3.45;;
35128;SDS011;21301;43.626;10.580;2023-03-03T10:52:37;6.10;;;3.17;;
35128;SDS011;21301;43.626;10.580;2023-03-03T10:55:18;10.80;;;3.78;;
35128;SDS011;21301;43.626;10.580;2023-03-03T11:00:40;6.63;;;3.25;;
35128;SDS011;21301;43.626;10.580;2023-03-03T11:31:59;7.85;;;3.80;;
35128;SDS011;21301;43.626;10.580;2023-03-03T11:37:19;6.18;;;3.05;;
35128;SDS011;21301;43.626;10.580;2023-03-03T11:39:50;6.50;;;3.35;;
35128;SDS011;21301;43.626;10.580;2023-03-03T11:42:24;6.53;;;3.03;;
35128;SDS011;21301;43.626;10.580;2023-03-03T11:44:52;7.20;;;3.13;;
35128;SDS011;21301;43.626;10.580;2023-03-03T11:47:42;8.63;;;3.10;;
35128;SDS011;21301;43.626;10.580;2023-03-03T11:50:34;7.90;;;3.38;;
35128;SDS011;21301;43.626;10.580;2023-03-03T11:53:21;9.38;;;3.05;;
35128;SDS011;21301;43.626;10.580;2023-03-03T12:02:08;8.65;;;3.00;;
35128;SDS011;21301;43.626;10.580;2023-03-03T12:05:03;7.80;;;3.17;;
35128;SDS011;21301;43.626;10.580;2023-03-03T12:07:39;12.68;;;3.38;;
35128;SDS011;21301;43.626;10.580;2023-03-03T12:12:43;6.43;;;3.15;;
35128;SDS011;21301;43.626;10.580;2023-03-03T12:23:36;10.13;;;4.65;;
35128;SDS011;21301;43.626;10.580;2023-03-03T12:26:13;8.25;;;3.88;;
35128;SDS011;21301;43.626;10.580;2023-03-03T12:28:55;7.85;;;3.78;;
35128;SDS011;21301;43.626;10.580;2023-03-03T12:31:33;9.48;;;3.22;;
35128;SDS011;21301;43.626;10.580;2023-03-03T12:34:43;7.65;;;3.67;;
35128;SDS011;21301;43.626;10.580;2023-03-03T12:40:00;9.45;;;4.07;;
35128;SDS011;21301;43.626;10.580;2023-03-03T12:48:00;7.88;;;3.95;;
35128;SDS011;21301;43.626;10.580;2023-03-03T12:50:47;12.98;;;4.07;;
35128;SDS011;21301;43.626;10.580;2023-03-03T12:56:04;8.15;;;3.10;;
35128;SDS011;21301;43.626;10.580;2023-03-03T12:58:42;9.68;;;3.20;;
35128;SDS011;21301;43.626;10.580;2023-03-03T13:14:56;6.35;;;3.17;;
35128;SDS011;21301;43.626;10.580;2023-03-03T13:17:58;5.78;;;2.80;;
35128;SDS011;21301;43.626;10.580;2023-03-03T13:20:30;6.63;;;2.63;;
35128;SDS011;21301;43.626;10.580;2023-03-03T13:25:50;6.15;;;3.30;;
35128;SDS011;21301;43.626;10.580;2023-03-03T13:28:27;6.07;;;2.63;;
35128;SDS011;21301;43.626;10.580;2023-03-03T13:31:06;6.70;;;3.00;;
35128;SDS011;21301;43.626;10.580;2023-03-03T13:33:39;13.73;;;3.40;;
35128;SDS011;21301;43.626;10.580;2023-03-03T13:36:15;9.80;;;3.30;;
35128;SDS011;21301;43.626;10.580;2023-03-03T13:38:52;8.20;;;3.72;;
35128;SDS011;21301;43.626;10.580;2023-03-03T13:43:59;10.48;;;3.92;;
35128;SDS011;21301;43.626;10.580;2023-03-03T13:49:04;8.93;;;2.90;;
35128;SDS011;21301;43.626;10.580;2023-03-03T13:54:49;5.55;;;2.65;;
35128;SDS011;21301;43.626;10.580;2023-03-03T13:57:42;5.20;;;2.38;;
35128;SDS011;21301;43.626;10.580;2023-03-03T14:05:48;6.57;;;2.42;;
35128;SDS011;21301;43.626;10.580;2023-03-03T14:11:12;9.20;;;2.40;;
35128;SDS011;21301;43.626;10.580;2023-03-03T14:14:08;6.78;;;2.55;;
35128;SDS011;21301;43.626;10.580;2023-03-03T14:16:40;4.00;;;2.00;;
35128;SDS011;21301;43.626;10.580;2023-03-03T14:24:16;7.90;;;2.60;;
35128;SDS011;21301;43.626;10.580;2023-03-03T14:26:48;4.57;;;2.05;;
35128;SDS011;21301;43.626;10.580;2023-03-03T14:29:28;7.22;;;2.70;;
35128;SDS011;21301;43.626;10.580;2023-03-03T14:31:57;6.57;;;2.28;;
35128;SDS011;21301;43.626;10.580;2023-03-03T14:34:43;5.57;;;2.40;;
35128;SDS011;21301;43.626;10.580;2023-03-03T14:37:23;8.48;;;3.22;;
35128;SDS011;21301;43.626;10.580;2023-03-03T14:42:36;11.85;;;3.10;;
35128;SDS011;21301;43.626;10.580;2023-03-03T14:53:42;9.57;;;3.08;;
35128;SDS011;21301;43.626;10.580;2023-03-03T14:59:19;10.75;;;2.90;;
35128;SDS011;21301;43.626;10.580;2023-03-03T15:09:58;11.27;;;3.00;;
35128;SDS011;21301;43.626;10.580;2023-03-03T15:12:37;9.98;;;2.53;;
35128;SDS011;21301;43.626;10.580;2023-03-03T15:17:35;7.43;;;2.55;;
35128;SDS011;21301;43.626;10.580;2023-03-03T15:20:13;7.22;;;2.50;;
35128;SDS011;21301;43.626;10.580;2023-03-03T15:22:51;5.55;;;2.45;;
35128;SDS011;21301;43.626;10.580;2023-03-03T15:45:46;8.50;;;3.22;;
35128;SDS011;21301;43.626;10.580;2023-03-03T15:48:30;8.77;;;2.70;;
35128;SDS011;21301;43.626;10.580;2023-03-03T16:02:21;8.95;;;3.10;;
35128;SDS011;21301;43.626;10.580;2023-03-03T16:04:53;8.00;;;3.60;;
35128;SDS011;21301;43.626;10.580;2023-03-03T16:21:59;8.32;;;3.22;;
35128;SDS011;21301;43.626;10.580;2023-03-03T16:38:43;14.50;;;5.82;;
35128;SDS011;21301;43.626;10.580;2023-03-03T16:41:22;14.00;;;6.28;;
35128;SDS011;21301;43.626;10.580;2023-03-03T16:47:21;10.45;;;6.50;;
35128;SDS011;21301;43.626;10.580;2023-03-03T16:58:35;8.05;;;3.17;;
35128;SDS011;21301;43.626;10.580;2023-03-03T17:09:47;9.07;;;5.68;;
35128;SDS011;21301;43.626;10.580;2023-03-03T17:12:05;16.00;;;7.47;;
35128;SDS011;21301;43.626;10.580;2023-03-03T17:31:25;12.82;;;8.05;;
35128;SDS011;21301;43.626;10.580;2023-03-03T17:36:54;16.73;;;9.07;;
35128;SDS011;21301;43.626;10.580;2023-03-03T17:45:04;20.65;;;13.15;;
35128;SDS011;21301;43.626;10.580;2023-03-03T17:50:24;42.28;;;19.23;;
35128;SDS011;21301;43.626;10.580;2023-03-03T17:53:24;38.25;;;22.10;;
35128;SDS011;21301;43.626;10.580;2023-03-03T17:58:51;17.23;;;11.10;;
35128;SDS011;21301;43.626;10.580;2023-03-03T18:15:10;43.65;;;25.50;;
35128;SDS011;21301;43.626;10.580;2023-03-03T18:17:52;32.08;;;23.05;;
35128;SDS011;21301;43.626;10.580;2023-03-03T18:31:22;57.65;;;35.80;;
35128;SDS011;21301;43.626;10.580;2023-03-03T18:33:59;47.00;;;31.70;;
35128;SDS011;21301;43.626;10.580;2023-03-03T18:38:55;27.70;;;15.38;;
35128;SDS011;21301;43.626;10.580;2023-03-03T18:41:24;23.60;;;15.98;;
35128;SDS011;21301;43.626;10.580;2023-03-03T18:43:53;37.28;;;22.38;;
35128;SDS011;21301;43.626;10.580;2023-03-03T18:49:00;36.08;;;24.17;;
35128;SDS011;21301;43.626;10.580;2023-03-03T18:56:41;43.15;;;21.90;;
35128;SDS011;21301;43.626;10.580;2023-03-03T18:59:09;38.03;;;21.33;;
35128;SDS011;21301;43.626;10.580;2023-03-03T19:04:44;21.08;;;11.93;;
35128;SDS011;21301;43.626;10.580;2023-03-03T19:09:53;21.15;;;11.63;;
35128;SDS011;21301;43.626;10.580;2023-03-03T19:23:25;16.75;;;10.88;;
35128;SDS011;21301;43.626;10.580;2023-03-03T19:31:45;21.38;;;10.38;;
35128;SDS011;21301;43.626;10.580;2023-03-03T19:36:59;18.90;;;10.60;;
35128;SDS011;21301;43.626;10.580;2023-03-03T19:39:38;17.60;;;10.68;;
35128;SDS011;21301;43.626;10.580;2023-03-03T19:48:30;25.55;;;12.73;;
35128;SDS011;21301;43.626;10.580;2023-03-03T19:51:11;31.92;;;14.13;;
35128;SDS011;21301;43.626;10.580;2023-03-03T19:56:32;30.75;;;18.25;;
35128;SDS011;21301;43.626;10.580;2023-03-03T20:04:28;45.03;;;25.92;;
35128;SDS011;21301;43.626;10.580;2023-03-03T20:07:26;39.10;;;25.23;;
35128;SDS011;21301;43.626;10.580;2023-03-03T20:10:07;40.55;;;26.23;;
35128;SDS011;21301;43.626;10.580;2023-03-03T20:15:29;48.08;;;24.95;;
35128;SDS011;21301;43.626;10.580;2023-03-03T20:47:37;22.65;;;13.60;;
35128;SDS011;21301;43.626;10.580;2023-03-03T20:50:34;38.65;;;17.50;;
35128;SDS011;21301;43.626;10.580;2023-03-03T20:56:13;35.75;;;17.95;;
35128;SDS011;21301;43.626;10.580;2023-03-03T20:58:48;25.00;;;13.88;;
35128;SDS011;21301;43.626;10.580;2023-03-03T21:04:17;21.40;;;13.30;;
35128;SDS011;21301;43.626;10.580;2023-03-03T21:06:43;25.63;;;14.60;;
35128;SDS011;21301;43.626;10.580;2023-03-03T21:11:58;45.67;;;21.65;;
35128;SDS011;21301;43.626;10.580;2023-03-03T21:14:27;28.00;;;16.40;;
35128;SDS011;21301;43.626;10.580;2023-03-03T21:16:56;44.10;;;20.23;;
35128;SDS011;21301;43.626;10.580;2023-03-03T21:21:50;27.77;;;17.30;;
35128;SDS011;21301;43.626;10.580;2023-03-03T21:24:16;35.35;;;18.88;;
35128;SDS011;21301;43.626;10.580;2023-03-03T21:29:21;30.10;;;17.10;;
35128;SDS011;21301;43.626;10.580;2023-03-03T21:32:03;57.55;;;21.40;;
35128;SDS011;21301;43.626;10.580;2023-03-03T21:34:32;24.63;;;16.25;;
35128;SDS011;21301;43.626;10.580;2023-03-03T21:37:04;34.45;;;17.75;;
35128;SDS011;21301;43.626;10.580;2023-03-03T21:39:32;22.70;;;14.70;;
35128;SDS011;21301;43.626;10.580;2023-03-03T21:42:01;22.80;;;13.30;;
35128;SDS011;21301;43.626;10.580;2023-03-03T21:44:36;27.55;;;16.15;;
35128;SDS011;21301;43.626;10.580;2023-03-03T21:47:03;55.95;;;24.77;;
35128;SDS011;21301;43.626;10.580;2023-03-03T21:49:30;35.72;;;15.25;;
35128;SDS011;21301;43.626;10.580;2023-03-03T21:51:57;25.10;;;10.93;;
35128;SDS011;21301;43.626;10.580;2023-03-03T21:54:24;39.10;;;17.30;;
35128;SDS011;21301;43.626;10.580;2023-03-03T21:56:50;32.17;;;14.95;;
35128;SDS011;21301;43.626;10.580;2023-03-03T21:59:16;18.90;;;11.73;;
35128;SDS011;21301;43.626;10.580;2023-03-03T22:01:42;33.80;;;13.73;;
35128;SDS011;21301;43.626;10.580;2023-03-03T22:04:08;25.95;;;14.63;;
35128;SDS011;21301;43.626;10.580;2023-03-03T22:06:35;19.95;;;13.43;;
35128;SDS011;21301;43.626;10.580;2023-03-03T22:09:04;34.92;;;17.25;;
35128;SDS011;21301;43.626;10.580;2023-03-03T22:11:31;25.50;;;13.15;;
35128;SDS011;21301;43.626;10.580;2023-03-03T22:13:58;41.78;;;20.23;;
35128;SDS011;21301;43.626;10.580;2023-03-03T22:16:23;29.58;;;16.02;;
35128;SDS011;21301;43.626;10.580;2023-03-03T22:18:49;53.65;;;24.02;;
35128;SDS011;21301;43.626;10.580;2023-03-03T22:21:15;25.67;;;15.60;;
35128;SDS011;21301;43.626;10.580;2023-03-03T22:23:41;36.83;;;18.60;;
35128;SDS011;21301;43.626;10.580;2023-03-03T22:26:07;27.90;;;17.25;;
35128;SDS011;21301;43.626;10.580;2023-03-03T22:28:34;30.70;;;17.55;;